createdAt,value
2022-09-28T00:01:17.568Z,10.48
2022-09-28T00:03:47.467Z,10.49
2022-09-28T00:06:18.498Z,10.48
2022-09-28T00:08:46.837Z,10.47
2022-09-28T00:11:16.373Z,10.48
2022-09-28T00:13:46.085Z,10.47
2022-09-28T00:16:16.866Z,10.41
2022-09-28T00:18:47.532Z,10.39
2022-09-28T00:21:17.348Z,10.42
2022-09-28T00:23:59.849Z,10.45
2022-09-28T00:26:28.599Z,10.46
2022-09-28T00:28:58.568Z,10.46
2022-09-28T00:31:26.945Z,10.44
2022-09-28T00:33:56.968Z,10.42
2022-09-28T00:36:27.009Z,10.39
2022-09-28T00:38:55.636Z,10.40
2022-09-28T00:41:24.371Z,10.35
2022-09-28T00:43:52.444Z,10.31
2022-09-28T00:46:24.934Z,10.27
2022-09-28T00:48:56.184Z,10.19
2022-09-28T00:51:27.419Z,10.11
2022-09-28T00:53:57.051Z,10.09
2022-09-28T00:56:28.098Z,10.08
2022-09-28T00:58:56.065Z,10.07
2022-09-28T01:01:24.101Z,10.07
2022-09-28T01:03:52.136Z,10.09
2022-09-28T01:06:22.568Z,10.09
2022-09-28T01:08:54.912Z,10.10
2022-09-28T01:11:22.904Z,10.11
2022-09-28T01:13:53.345Z,10.13
2022-09-28T01:16:30.893Z,10.12
2022-09-28T01:19:07.923Z,10.09
2022-09-28T01:21:47.165Z,10.05
2022-09-28T01:24:40.240Z,10.05
2022-09-28T01:27:15.923Z,10.07
2022-09-28T01:29:55.409Z,10.09
2022-09-28T01:32:44.645Z,10.08
2022-09-28T01:35:16.294Z,10.07
2022-09-28T01:37:52.011Z,10.08
2022-09-28T01:40:22.188Z,10.04
2022-09-28T01:42:56.328Z,10.05
2022-09-28T01:45:28.525Z,10.10
2022-09-28T01:47:59.639Z,10.13
2022-09-28T01:50:31.418Z,10.17
2022-09-28T01:53:04.793Z,10.17
2022-09-28T01:55:35.706Z,10.19
2022-09-28T01:58:12.574Z,10.22
2022-09-28T02:00:45.689Z,10.22
2022-09-28T02:03:18.647Z,10.21
2022-09-28T02:05:50.543Z,10.18
2022-09-28T02:08:25.397Z,10.18
2022-09-28T02:10:59.197Z,10.12
2022-09-28T02:13:33.949Z,10.05
2022-09-28T02:16:08.091Z,10.04
2022-09-28T02:18:36.164Z,10.03
2022-09-28T02:21:09.883Z,10.02
2022-09-28T02:23:41.054Z,10.03
2022-09-28T02:26:13.312Z,10.00
2022-09-28T02:28:42.605Z,9.97
2022-09-28T02:31:10.354Z,9.99
2022-09-28T02:33:40.926Z,9.93
2022-09-28T02:36:08.860Z,9.94
2022-09-28T02:38:37.410Z,9.96
2022-09-28T02:41:10.106Z,9.95
2022-09-28T02:43:50.310Z,9.96
2022-09-28T02:46:30.443Z,9.97
2022-09-28T02:49:21.872Z,9.95
2022-09-28T02:52:09.229Z,9.94
2022-09-28T02:55:11.520Z,9.96
2022-09-28T02:57:53.137Z,10.00
2022-09-28T03:00:23.940Z,9.99
2022-09-28T03:03:03.079Z,9.99
2022-09-28T03:05:36.705Z,9.98
2022-09-28T03:08:07.879Z,10.00
2022-09-28T03:10:41.355Z,10.03
2022-09-28T03:13:10.132Z,10.03
2022-09-28T03:15:39.226Z,10.05
2022-09-28T03:18:07.043Z,10.07
2022-09-28T03:20:35.281Z,10.09
2022-09-28T03:25:50.641Z,10.13
2022-09-28T03:28:18.403Z,10.14
2022-09-28T03:30:47.482Z,10.14
2022-09-28T03:33:15.105Z,10.14
2022-09-28T03:35:42.764Z,10.14
2022-09-28T03:38:10.425Z,10.15
2022-09-28T03:40:38.088Z,10.15
2022-09-28T03:43:05.790Z,10.15
2022-09-28T03:45:33.437Z,10.15
2022-09-28T03:48:02.748Z,10.17
2022-09-28T03:50:30.437Z,10.15
2022-09-28T03:53:03.362Z,10.17
2022-09-28T03:55:31.353Z,10.14
2022-09-28T03:57:59.033Z,10.14
2022-09-28T04:00:26.674Z,10.16
2022-09-28T04:02:55.082Z,10.10
2022-09-28T04:05:24.197Z,10.12
2022-09-28T04:07:53.254Z,10.10
2022-09-28T04:10:20.896Z,10.10
2022-09-28T04:12:49.741Z,10.08
2022-09-28T04:15:17.942Z,10.04
2022-09-28T04:17:45.768Z,10.04
2022-09-28T04:20:13.389Z,10.03
2022-09-28T04:22:43.109Z,10.03
2022-09-28T04:25:10.878Z,10.02
2022-09-28T04:27:56.672Z,10.04
2022-09-28T04:30:24.680Z,10.04
2022-09-28T04:32:52.324Z,10.02
2022-09-28T04:35:20.026Z,10.03
2022-09-28T04:37:49.023Z,10.07
2022-09-28T04:40:16.753Z,10.09
2022-09-28T04:42:44.651Z,10.08
2022-09-28T04:45:12.344Z,10.08
2022-09-28T04:47:40.102Z,10.07
2022-09-28T04:50:08.662Z,10.07
2022-09-28T04:52:37.325Z,10.06
2022-09-28T04:55:07.402Z,10.07
2022-09-28T04:57:35.335Z,10.10
2022-09-28T05:00:03.215Z,10.12
2022-09-28T05:02:30.901Z,10.12
2022-09-28T05:04:58.932Z,10.13
2022-09-28T05:07:26.899Z,10.13
2022-09-28T05:09:55.270Z,10.00
2022-09-28T05:12:24.484Z,10.04
2022-09-28T05:14:52.282Z,10.07
2022-09-28T05:17:20.078Z,10.08
2022-09-28T05:19:47.740Z,10.11
2022-09-28T05:22:15.841Z,10.11
2022-09-28T05:24:43.689Z,10.12
2022-09-28T05:27:11.433Z,10.11
2022-09-28T05:29:40.466Z,10.13
2022-09-28T05:32:08.209Z,10.14
2022-09-28T05:34:35.979Z,10.16
2022-09-28T05:37:03.675Z,10.17
2022-09-28T05:39:31.342Z,10.14
2022-09-28T05:41:59.079Z,10.14
2022-09-28T05:44:26.882Z,10.13
2022-09-28T05:46:55.938Z,10.14
2022-09-28T05:49:23.640Z,10.15
2022-09-28T05:51:51.270Z,10.17
2022-09-28T05:54:18.996Z,10.17
2022-09-28T05:56:46.815Z,10.20
2022-09-28T05:59:14.505Z,10.22
2022-09-28T06:01:42.338Z,10.25
2022-09-28T06:04:11.443Z,10.28
2022-09-28T06:06:39.356Z,10.29
2022-09-28T06:09:07.072Z,10.30
2022-09-28T06:11:34.895Z,10.28
2022-09-28T06:14:02.574Z,10.30
2022-09-28T06:16:30.662Z,10.32
2022-09-28T06:18:58.418Z,10.33
2022-09-28T06:21:27.646Z,10.34
2022-09-28T06:23:55.271Z,10.32
2022-09-28T06:26:22.917Z,10.33
2022-09-28T06:28:50.573Z,10.34
2022-09-28T06:31:23.554Z,10.35
2022-09-28T06:33:52.221Z,10.35
2022-09-28T06:36:21.359Z,10.34
2022-09-28T06:38:50.683Z,10.35
2022-09-28T06:41:18.501Z,10.35
2022-09-28T06:43:46.489Z,10.34
2022-09-28T06:46:14.906Z,10.29
2022-09-28T06:48:44.287Z,10.22
2022-09-28T06:51:12.177Z,10.22
2022-09-28T06:53:39.832Z,10.22
2022-09-28T06:56:11.396Z,10.24
2022-09-28T06:58:39.212Z,10.25
2022-09-28T07:01:07.164Z,10.29
2022-09-28T07:03:34.872Z,10.36
2022-09-28T07:06:02.692Z,10.40
2022-09-28T07:08:30.462Z,10.43
2022-09-28T07:10:58.139Z,10.39
2022-09-28T07:13:48.468Z,10.48
2022-09-28T07:16:17.062Z,10.52
2022-09-28T07:18:44.886Z,10.56
2022-09-28T07:21:23.865Z,10.60
2022-09-28T07:23:54.676Z,10.70
2022-09-28T07:26:24.482Z,10.73
2022-09-28T07:28:55.806Z,10.73
2022-09-28T07:31:25.221Z,10.75
2022-09-28T07:33:54.050Z,10.84
2022-09-28T07:36:22.707Z,10.83
2022-09-28T07:38:50.540Z,10.85
2022-09-28T07:41:22.321Z,10.84
2022-09-28T07:43:50.820Z,10.86
2022-09-28T07:46:21.213Z,10.90
2022-09-28T07:48:51.778Z,10.89
2022-09-28T07:51:21.116Z,10.87
2022-09-28T07:53:49.127Z,10.89
2022-09-28T07:56:18.224Z,10.90
2022-09-28T07:58:48.163Z,10.91
2022-09-28T08:01:16.584Z,10.93
2022-09-28T08:03:47.998Z,10.85
2022-09-28T08:06:17.773Z,10.90
2022-09-28T08:08:46.015Z,10.96
2022-09-28T08:11:15.154Z,11.02
2022-09-28T08:13:43.915Z,10.98
2022-09-28T08:16:11.883Z,10.94
2022-09-28T08:18:39.632Z,10.98
2022-09-28T08:21:26.194Z,11.12
2022-09-28T08:23:53.943Z,11.14
2022-09-28T08:26:21.749Z,11.24
2022-09-28T08:28:49.423Z,11.41
2022-09-28T08:31:17.128Z,11.56
2022-09-28T08:33:45.080Z,11.67
2022-09-28T08:36:14.144Z,11.64
2022-09-28T08:38:41.805Z,11.72
2022-09-28T08:41:18.468Z,11.66
2022-09-28T08:44:15.518Z,11.69
2022-09-28T08:46:47.716Z,11.87
2022-09-28T08:49:25.469Z,11.97
2022-09-28T08:51:59.010Z,12.01
2022-09-28T08:54:34.845Z,12.06
2022-09-28T08:57:06.628Z,12.12
2022-09-28T08:59:46.426Z,12.19
2022-09-28T09:02:19.200Z,12.23
2022-09-28T09:04:47.140Z,12.38
2022-09-28T09:07:33.199Z,12.54
2022-09-28T09:10:12.703Z,12.55
2022-09-28T09:12:48.396Z,12.59
2022-09-28T09:15:48.129Z,12.54
2022-09-28T09:18:26.136Z,12.53
2022-09-28T09:20:57.524Z,12.50
2022-09-28T09:23:37.231Z,12.42
2022-09-28T09:26:14.668Z,12.50
2022-09-28T09:29:18.334Z,12.45
2022-09-28T09:32:04.338Z,12.56
2022-09-28T09:34:49.077Z,12.75
2022-09-28T09:37:26.426Z,12.90
2022-09-28T09:40:16.244Z,13.03
2022-09-28T09:42:58.001Z,13.01
2022-09-28T09:45:43.856Z,12.96
2022-09-28T09:48:18.935Z,12.97
2022-09-28T09:50:51.564Z,13.10
2022-09-28T09:53:25.275Z,13.21
2022-09-28T09:55:57.392Z,13.25
2022-09-28T09:58:29.611Z,13.35
2022-09-28T10:01:03.117Z,13.37
2022-09-28T10:03:34.062Z,13.38
2022-09-28T10:06:07.406Z,13.43
2022-09-28T10:08:40.743Z,13.39
2022-09-28T10:11:16.518Z,13.41
2022-09-28T10:13:44.806Z,13.46
2022-09-28T10:16:12.720Z,13.55
2022-09-28T10:18:40.502Z,13.58
2022-09-28T10:21:12.645Z,13.49
2022-09-28T10:23:42.177Z,13.44
2022-09-28T10:26:14.620Z,13.34
2022-09-28T10:28:46.483Z,13.32
2022-09-28T10:31:40.111Z,13.39
2022-09-28T10:34:09.198Z,13.49
2022-09-28T10:36:48.615Z,13.47
2022-09-28T10:39:31.278Z,13.48
2022-09-28T10:42:03.500Z,13.52
2022-09-28T10:44:34.640Z,13.59
2022-09-28T10:47:04.215Z,13.76
2022-09-28T10:49:45.861Z,13.78
2022-09-28T10:52:33.336Z,13.81
2022-09-28T10:55:03.630Z,13.78
2022-09-28T10:57:35.729Z,13.80
2022-09-28T11:00:06.927Z,13.83
2022-09-28T11:02:37.402Z,13.80
2022-09-28T11:05:08.171Z,13.75
2022-09-28T11:07:46.306Z,13.72
2022-09-28T11:10:22.314Z,13.70
2022-09-28T11:12:52.771Z,13.58
2022-09-28T11:15:22.324Z,13.55
2022-09-28T11:17:50.088Z,13.47
2022-09-28T11:20:35.956Z,13.45
2022-09-28T11:23:20.517Z,13.46
2022-09-28T11:26:05.710Z,13.39
2022-09-28T11:28:37.839Z,13.45
2022-09-28T11:31:08.329Z,13.55
2022-09-28T11:33:38.384Z,13.66
2022-09-28T11:36:28.353Z,13.76
2022-09-28T11:39:06.393Z,13.96
2022-09-28T11:42:00.533Z,14.16
2022-09-28T11:44:46.516Z,14.28
2022-09-28T11:47:37.808Z,14.40
2022-09-28T11:50:17.850Z,14.52
2022-09-28T11:52:56.106Z,14.61
2022-09-28T11:55:34.465Z,14.69
2022-09-28T11:58:09.857Z,14.69
2022-09-28T12:00:46.520Z,14.77
2022-09-28T12:03:17.310Z,14.80
2022-09-28T12:05:49.551Z,14.82
2022-09-28T12:08:25.416Z,14.79
2022-09-28T12:10:59.377Z,14.82
2022-09-28T12:13:35.376Z,14.84
2022-09-28T12:16:32.656Z,14.85
2022-09-28T12:19:08.187Z,14.92
2022-09-28T12:21:43.701Z,14.92
2022-09-28T12:24:18.779Z,15.00
2022-09-28T12:27:13.867Z,15.10
2022-09-28T12:29:47.492Z,15.09
2022-09-28T12:32:29.405Z,15.07
2022-09-28T12:34:58.684Z,15.04
2022-09-28T12:37:41.324Z,15.04
2022-09-28T12:40:41.921Z,15.02
2022-09-28T12:43:33.971Z,15.01
2022-09-28T12:46:20.786Z,15.15
2022-09-28T12:52:18.970Z,15.24
2022-09-28T12:55:04.751Z,15.21
2022-09-28T12:57:42.010Z,15.26
2022-09-28T13:00:13.228Z,15.32
2022-09-28T13:03:03.077Z,15.38
2022-09-28T13:05:49.427Z,15.44
2022-09-28T13:08:27.040Z,15.52
2022-09-28T13:11:08.019Z,15.56
2022-09-28T13:13:48.458Z,15.60
2022-09-28T13:16:23.800Z,15.59
2022-09-28T13:18:58.772Z,15.52
2022-09-28T13:21:37.961Z,15.53
2022-09-28T13:24:28.186Z,15.54
2022-09-28T13:27:00.494Z,15.62
2022-09-28T13:29:29.025Z,15.64
2022-09-28T13:32:00.191Z,15.61
2022-09-28T13:34:30.569Z,15.55
2022-09-28T13:37:24.027Z,15.40
2022-09-28T13:39:53.098Z,15.26
2022-09-28T13:43:02.403Z,14.95
2022-09-28T13:45:40.003Z,14.74
2022-09-28T13:48:15.673Z,14.59
2022-09-28T13:51:05.777Z,14.43
2022-09-28T13:53:54.010Z,14.32
2022-09-28T13:56:31.219Z,14.20
2022-09-28T13:59:05.270Z,14.09
2022-09-28T14:01:38.610Z,14.00
2022-09-28T14:04:16.663Z,13.95
2022-09-28T14:06:51.396Z,13.88
2022-09-28T14:09:42.703Z,13.80
2022-09-28T14:12:46.955Z,13.76
2022-09-28T14:15:45.163Z,13.65
2022-09-28T14:18:32.606Z,13.52
2022-09-28T14:21:30.835Z,13.46
2022-09-28T14:24:13.181Z,13.39
2022-09-28T14:27:04.968Z,13.38
2022-09-28T14:29:35.239Z,13.36
2022-09-28T14:32:06.747Z,13.36
2022-09-28T14:34:38.046Z,13.30
2022-09-28T14:37:38.385Z,13.29
2022-09-28T14:40:35.538Z,13.26
2022-09-28T14:43:28.058Z,13.25
2022-09-28T14:46:34.024Z,13.21
2022-09-28T14:49:03.237Z,13.20
2022-09-28T14:52:04.079Z,13.23
2022-09-28T14:54:42.858Z,13.24
2022-09-28T14:57:18.291Z,13.21
2022-09-28T14:59:48.154Z,13.20
2022-09-28T15:02:21.285Z,13.15
2022-09-28T15:04:53.110Z,13.16
2022-09-28T15:07:24.421Z,13.11
2022-09-28T15:09:53.828Z,13.11
2022-09-28T15:12:25.221Z,13.13
2022-09-28T15:14:57.237Z,13.15
2022-09-28T15:17:28.135Z,13.16
2022-09-28T15:20:25.286Z,13.15
2022-09-28T15:22:57.498Z,13.16
2022-09-28T15:25:27.395Z,13.11
2022-09-28T15:27:57.033Z,13.08
2022-09-28T15:30:28.871Z,13.04
2022-09-28T15:33:17.778Z,13.03
2022-09-28T15:35:47.745Z,13.01
2022-09-28T15:38:18.370Z,12.98
2022-09-28T15:40:47.628Z,12.97
2022-09-28T15:43:26.894Z,13.00
2022-09-28T15:46:02.906Z,13.01
2022-09-28T15:48:32.808Z,13.02
2022-09-28T15:51:11.033Z,12.99
2022-09-28T15:53:46.392Z,12.97
2022-09-28T15:56:53.103Z,13.00
2022-09-28T15:59:35.665Z,12.99
2022-09-28T16:02:12.621Z,12.98
2022-09-28T16:04:44.233Z,12.97
2022-09-28T16:07:20.698Z,12.94
2022-09-28T16:10:04.729Z,12.91
2022-09-28T16:12:43.359Z,12.75
2022-09-28T16:15:20.168Z,12.74
2022-09-28T16:17:54.715Z,12.73
2022-09-28T16:20:29.142Z,12.70
2022-09-28T16:22:59.540Z,12.68
2022-09-28T16:25:27.970Z,12.59
2022-09-28T16:27:56.850Z,12.57
2022-09-28T16:30:27.163Z,12.58
2022-09-28T16:32:58.146Z,12.59
2022-09-28T16:35:28.704Z,12.61
2022-09-28T16:38:05.664Z,12.59
2022-09-28T16:40:34.410Z,12.55
2022-09-28T16:43:05.458Z,12.50
2022-09-28T16:45:35.132Z,12.49
2022-09-28T16:48:05.492Z,12.48
2022-09-28T16:50:33.230Z,12.50
2022-09-28T16:53:25.028Z,12.52
2022-09-28T16:55:52.754Z,12.50
2022-09-28T16:58:20.393Z,12.46
2022-09-28T17:00:48.065Z,12.44
2022-09-28T17:03:19.314Z,12.42
2022-09-28T17:05:50.917Z,12.40
2022-09-28T17:08:21.608Z,12.36
2022-09-28T17:13:42.169Z,12.31
2022-09-28T17:16:14.114Z,12.28
2022-09-28T17:18:43.332Z,12.24
2022-09-28T17:21:15.749Z,12.19
2022-09-28T17:23:43.510Z,12.13
2022-09-28T17:26:19.415Z,12.10
2022-09-28T17:28:47.180Z,12.11
2022-09-28T17:31:16.257Z,12.15
2022-09-28T17:33:45.845Z,12.13
2022-09-28T17:36:16.733Z,12.13
2022-09-28T17:38:45.055Z,12.11
2022-09-28T17:41:18.070Z,12.11
2022-09-28T17:43:48.046Z,12.09
2022-09-28T17:46:28.309Z,12.08
2022-09-28T17:48:59.653Z,12.07
2022-09-28T17:51:28.333Z,12.07
2022-09-28T17:53:56.843Z,12.07
2022-09-28T17:56:27.498Z,12.06
2022-09-28T17:59:00.812Z,12.07
2022-09-28T18:01:33.707Z,12.05
2022-09-28T18:04:05.261Z,12.04
2022-09-28T18:06:33.879Z,12.00
2022-09-28T18:09:02.782Z,11.99
2022-09-28T18:11:30.805Z,11.97
2022-09-28T18:13:58.527Z,11.97
2022-09-28T18:16:27.901Z,11.99
2022-09-28T18:18:55.776Z,12.00
2022-09-28T18:21:24.838Z,11.96
2022-09-28T18:23:52.475Z,11.94
2022-09-28T18:26:20.284Z,11.92
2022-09-28T18:28:48.150Z,11.89
2022-09-28T18:31:19.106Z,11.86
2022-09-28T18:33:48.300Z,11.81
2022-09-28T18:36:15.977Z,11.76
2022-09-28T18:38:45.079Z,11.71
2022-09-28T18:41:15.774Z,11.66
2022-09-28T18:43:44.177Z,11.64
2022-09-28T18:46:12.745Z,11.56
2022-09-28T18:48:41.598Z,11.48
2022-09-28T18:51:10.156Z,11.41
2022-09-28T18:53:38.040Z,11.36
2022-09-28T18:56:09.362Z,11.33
2022-09-28T18:58:37.951Z,11.31
2022-09-28T19:01:28.911Z,11.28
2022-09-28T19:03:59.806Z,11.25
2022-09-28T19:06:27.544Z,11.21
2022-09-28T19:08:56.780Z,11.18
2022-09-28T19:11:26.758Z,11.14
2022-09-28T19:13:55.322Z,11.12
2022-09-28T19:16:25.100Z,11.07
2022-09-28T19:18:53.635Z,11.03
2022-09-28T19:21:22.170Z,11.00
2022-09-28T19:23:50.220Z,10.96
2022-09-28T19:26:20.394Z,10.91
2022-09-28T19:28:50.012Z,10.90
2022-09-28T19:31:18.364Z,10.86
2022-09-28T19:33:46.724Z,10.82
2022-09-28T19:36:17.703Z,10.78
2022-09-28T19:38:46.241Z,10.70
2022-09-28T19:41:39.471Z,10.62
2022-09-28T19:44:15.770Z,10.59
2022-09-28T19:46:43.724Z,10.59
2022-09-28T19:49:13.375Z,10.58
2022-09-28T19:51:56.555Z,10.58
2022-09-28T19:54:36.323Z,10.55
2022-09-28T19:57:07.432Z,10.54
2022-09-28T19:59:37.376Z,10.52
2022-09-28T20:02:06.423Z,10.48
2022-09-28T20:04:34.191Z,10.47
2022-09-28T20:07:02.097Z,10.47
2022-09-28T20:09:29.803Z,10.46
2022-09-28T20:11:57.532Z,10.45
2022-09-28T20:14:27.906Z,10.39
2022-09-28T20:16:59.671Z,10.38
2022-09-28T20:19:42.367Z,10.34
2022-09-28T20:22:10.075Z,10.32
2022-09-28T20:24:37.832Z,10.30
2022-09-28T20:27:05.660Z,10.28
2022-09-28T20:29:33.755Z,10.27
2022-09-28T20:32:03.886Z,10.29
2022-09-28T20:34:33.451Z,10.32
2022-09-28T20:37:01.277Z,10.37
2022-09-28T20:39:29.235Z,10.42
2022-09-28T20:41:57.641Z,10.46
2022-09-28T20:44:25.379Z,10.51
2022-09-28T20:46:53.250Z,10.54
2022-09-28T20:49:22.319Z,10.57
2022-09-28T20:51:49.995Z,10.59
2022-09-28T20:54:17.727Z,10.61
2022-09-28T20:56:48.009Z,10.62
2022-09-28T20:59:15.758Z,10.63
2022-09-28T21:01:43.498Z,10.65
2022-09-28T21:04:11.807Z,10.65
2022-09-28T21:06:42.647Z,10.66
2022-09-28T21:09:12.270Z,10.69
2022-09-28T21:11:40.243Z,10.70
2022-09-28T21:14:10.097Z,10.72
2022-09-28T21:16:38.628Z,10.73
2022-09-28T21:19:06.361Z,10.73
2022-09-28T21:21:34.408Z,10.74
2022-09-28T21:24:03.555Z,10.73
2022-09-28T21:26:32.664Z,10.72
2022-09-28T21:29:01.829Z,10.72
2022-09-28T21:31:32.461Z,10.74
2022-09-28T21:34:00.674Z,10.70
2022-09-28T21:36:28.371Z,10.66
2022-09-28T21:38:56.193Z,10.64
2022-09-28T21:41:26.153Z,10.61
2022-09-28T21:43:53.878Z,10.59
2022-09-28T21:46:21.880Z,10.58
2022-09-28T21:48:53.343Z,10.55
2022-09-28T21:51:21.548Z,10.52
2022-09-28T21:53:49.657Z,10.49
2022-09-28T21:56:17.732Z,10.46
2022-09-28T21:58:47.266Z,10.43
2022-09-28T22:01:18.147Z,10.39
2022-09-28T22:03:47.903Z,10.38
2022-09-28T22:06:17.039Z,10.36
2022-09-28T22:08:44.874Z,10.35
2022-09-28T22:11:14.723Z,10.32
2022-09-28T22:13:43.922Z,10.31
2022-09-28T22:16:14.605Z,10.29
2022-09-28T22:18:42.889Z,10.25
2022-09-28T22:21:17.775Z,10.20
2022-09-28T22:23:46.117Z,10.18
2022-09-28T22:26:17.972Z,10.14
2022-09-28T22:28:47.773Z,10.12
2022-09-28T22:31:18.492Z,10.07
2022-09-28T22:33:46.382Z,10.05
2022-09-28T22:36:20.020Z,10.01
2022-09-28T22:38:49.372Z,9.99
2022-09-28T22:41:21.005Z,9.97
2022-09-28T22:43:50.081Z,9.95
2022-09-28T22:46:20.792Z,9.93
2022-09-28T22:48:49.645Z,9.92
2022-09-28T22:51:17.971Z,9.91
2022-09-28T22:53:46.320Z,9.89
2022-09-28T22:56:18.638Z,9.86
2022-09-28T22:58:47.209Z,9.83
2022-09-28T23:01:17.794Z,9.79
2022-09-28T23:03:47.322Z,9.76
2022-09-28T23:06:17.047Z,9.73
2022-09-28T23:08:45.467Z,9.72
2022-09-28T23:11:13.176Z,9.72
2022-09-28T23:13:40.853Z,9.71
2022-09-28T23:16:11.675Z,9.68
2022-09-28T23:18:40.808Z,9.65
2022-09-28T23:21:15.156Z,9.63
2022-09-28T23:23:42.947Z,9.59
2022-09-28T23:26:12.219Z,9.59
2022-09-28T23:28:39.982Z,9.55
2022-09-28T23:31:12.211Z,9.51
2022-09-28T23:33:40.037Z,9.47
2022-09-28T23:36:10.072Z,9.43
2022-09-28T23:38:38.118Z,9.40
2022-09-28T23:41:06.088Z,9.39
2022-09-28T23:43:33.839Z,9.38
2022-09-28T23:46:01.745Z,9.34
2022-09-28T23:48:29.482Z,9.30
2022-09-28T23:50:57.157Z,9.30
2022-09-28T23:53:26.280Z,9.27
2022-09-28T23:55:54.367Z,9.21
2022-09-28T23:58:22.465Z,9.20
